createdAt,value
2022-09-14T00:01:48.744Z,100520.78
2022-09-14T00:04:22.187Z,100513.84
2022-09-14T00:06:51.727Z,100512.63
2022-09-14T00:09:22.770Z,100510.47
2022-09-14T00:11:52.628Z,100517.38
2022-09-14T00:14:21.662Z,100511.56
2022-09-14T00:16:51.984Z,100515.03
2022-09-14T00:19:24.361Z,100509.13
2022-09-14T00:21:55.233Z,100500.53
2022-09-14T00:24:26.093Z,100502.94
2022-09-14T00:26:55.620Z,100498.88
2022-09-14T00:29:25.231Z,100493.59
2022-09-14T00:31:54.340Z,100492.25
2022-09-14T00:34:24.734Z,100493.16
2022-09-14T00:36:53.913Z,100480.94
2022-09-14T00:39:24.815Z,100483.00
2022-09-14T00:41:54.750Z,100478.31
2022-09-14T00:45:01.286Z,100469.19
2022-09-14T00:47:32.793Z,100469.94
2022-09-14T00:50:05.413Z,100467.63
2022-09-14T00:52:38.276Z,100464.22
2022-09-14T00:55:10.120Z,100457.91
2022-09-14T00:57:42.797Z,100452.34
2022-09-14T01:00:15.682Z,100458.03
2022-09-14T01:02:45.116Z,100456.31
2022-09-14T01:05:16.295Z,100456.88
2022-09-14T01:08:06.561Z,100451.38
2022-09-14T01:10:54.181Z,100448.34
2022-09-14T01:13:35.488Z,100452.94
2022-09-14T01:16:14.541Z,100457.78
2022-09-14T01:18:47.683Z,100454.47
2022-09-14T01:21:24.609Z,100450.47
2022-09-14T01:24:02.236Z,100457.91
2022-09-14T01:26:56.695Z,100462.06
2022-09-14T01:29:32.104Z,100460.13
2022-09-14T01:32:06.291Z,100465.81
2022-09-14T01:34:39.999Z,100458.81
2022-09-14T01:37:13.901Z,100469.75
2022-09-14T01:39:47.220Z,100468.69
2022-09-14T01:42:19.286Z,100466.31
2022-09-14T01:44:53.825Z,100463.69
2022-09-14T01:47:28.617Z,100463.31
2022-09-14T01:50:07.094Z,100459.44
2022-09-14T01:52:40.908Z,100456.53
2022-09-14T01:55:14.877Z,100462.47
2022-09-14T01:57:47.267Z,100459.31
2022-09-14T02:00:19.662Z,100458.38
2022-09-14T02:02:53.864Z,100454.66
2022-09-14T02:05:28.662Z,100463.50
2022-09-14T02:07:58.257Z,100467.34
2022-09-14T02:10:28.262Z,100460.03
2022-09-14T02:12:57.825Z,100461.84
2022-09-14T02:15:28.396Z,100463.22
2022-09-14T02:17:57.526Z,100461.56
2022-09-14T02:20:32.146Z,100460.72
2022-09-14T02:23:01.703Z,100464.09
2022-09-14T02:25:30.650Z,100460.28
2022-09-14T02:27:59.826Z,100458.84
2022-09-14T02:30:36.543Z,100458.06
2022-09-14T02:33:12.267Z,100456.69
2022-09-14T02:35:48.133Z,100451.28
2022-09-14T02:38:24.982Z,100449.06
2022-09-14T02:40:59.290Z,100456.69
2022-09-14T02:43:38.377Z,100448.66
2022-09-14T02:46:17.669Z,100449.84
2022-09-14T02:48:53.254Z,100443.38
2022-09-14T02:51:29.233Z,100437.44
2022-09-14T02:54:03.392Z,100448.66
2022-09-14T02:56:34.142Z,100444.94
2022-09-14T02:59:03.290Z,100438.63
2022-09-14T03:01:33.793Z,100437.22
2022-09-14T03:04:03.223Z,100435.59
2022-09-14T03:06:32.880Z,100443.34
2022-09-14T03:09:01.800Z,100442.25
2022-09-14T03:11:30.693Z,100452.59
2022-09-14T03:13:59.696Z,100440.31
2022-09-14T03:16:28.821Z,100442.69
2022-09-14T03:18:59.209Z,100442.69
2022-09-14T03:21:28.225Z,100453.19
2022-09-14T03:23:57.899Z,100447.22
2022-09-14T03:26:28.962Z,100456.50
2022-09-14T03:28:59.505Z,100443.53
2022-09-14T03:31:29.696Z,100444.22
2022-09-14T03:34:01.748Z,100443.81
2022-09-14T03:36:32.007Z,100440.19
2022-09-14T03:39:02.669Z,100435.09
2022-09-14T03:41:31.773Z,100426.69
2022-09-14T03:44:00.653Z,100416.03
2022-09-14T03:46:29.607Z,100405.53
2022-09-14T03:48:59.870Z,100420.19
2022-09-14T03:51:29.131Z,100412.19
2022-09-14T03:53:58.218Z,100401.56
2022-09-14T03:56:27.358Z,100405.84
2022-09-14T03:58:56.335Z,100406.53
2022-09-14T04:01:25.476Z,100407.91
2022-09-14T04:03:54.486Z,100406.53
2022-09-14T04:06:26.147Z,100408.34
2022-09-14T04:08:56.021Z,100403.25
2022-09-14T04:11:26.213Z,100388.44
2022-09-14T04:13:55.434Z,100395.50
2022-09-14T04:16:24.479Z,100394.97
2022-09-14T04:18:54.029Z,100389.56
2022-09-14T04:21:26.196Z,100386.25
2022-09-14T04:24:14.046Z,100389.81
2022-09-14T04:26:44.572Z,100390.50
2022-09-14T04:29:14.465Z,100384.53
2022-09-14T04:31:43.678Z,100386.19
2022-09-14T04:34:14.585Z,100378.88
2022-09-14T04:36:44.945Z,100387.91
2022-09-14T04:39:15.125Z,100382.81
2022-09-14T04:41:44.354Z,100394.41
2022-09-14T04:44:13.737Z,100399.50
2022-09-14T04:46:46.627Z,100399.31
2022-09-14T04:49:18.669Z,100403.72
2022-09-14T04:51:49.348Z,100407.72
2022-09-14T04:54:19.418Z,100404.66
2022-09-14T04:56:48.384Z,100403.38
2022-09-14T04:59:17.539Z,100399.50
2022-09-14T05:01:48.526Z,100408.22
2022-09-14T05:04:18.300Z,100404.75
2022-09-14T05:06:50.117Z,100404.19
2022-09-14T05:09:20.341Z,100404.03
2022-09-14T05:11:51.795Z,100401.50
2022-09-14T05:14:20.806Z,100399.03
2022-09-14T05:16:49.759Z,100403.16
2022-09-14T05:19:19.521Z,100397.28
2022-09-14T05:21:49.813Z,100406.97
2022-09-14T05:24:20.351Z,100405.88
2022-09-14T05:26:49.480Z,100398.25
2022-09-14T05:29:19.594Z,100400.00
2022-09-14T05:31:50.032Z,100404.72
2022-09-14T05:34:20.309Z,100388.81
2022-09-14T05:36:54.378Z,100389.94
2022-09-14T05:39:25.228Z,100395.94
2022-09-14T05:41:55.128Z,100387.84
2022-09-14T05:44:25.408Z,100388.06
2022-09-14T05:46:54.530Z,100395.63
2022-09-14T05:49:25.195Z,100400.06
2022-09-14T05:51:55.476Z,100401.13
2022-09-14T05:54:24.461Z,100395.19
2022-09-14T05:56:53.469Z,100403.47
2022-09-14T05:59:22.435Z,100402.84
2022-09-14T06:01:51.468Z,100406.88
2022-09-14T06:04:20.641Z,100399.81
2022-09-14T06:07:14.621Z,100399.50
2022-09-14T06:09:40.200Z,100404.56
2022-09-14T06:12:09.764Z,100406.75
2022-09-14T06:14:40.642Z,100402.34
2022-09-14T06:17:09.633Z,100397.44
2022-09-14T06:19:38.718Z,100402.06
2022-09-14T06:22:07.627Z,100392.47
2022-09-14T06:24:37.479Z,100400.47
2022-09-14T06:27:08.992Z,100389.38
2022-09-14T06:29:38.090Z,100382.78
2022-09-14T06:32:07.414Z,100388.84
2022-09-14T06:34:36.400Z,100385.59
2022-09-14T06:37:05.344Z,100393.88
2022-09-14T06:39:34.393Z,100394.00
2022-09-14T06:42:04.930Z,100404.28
2022-09-14T06:44:35.287Z,100389.44
2022-09-14T06:47:04.646Z,100386.53
2022-09-14T06:49:33.586Z,100389.31
2022-09-14T06:52:02.772Z,100385.06
2022-09-14T06:54:31.822Z,100380.47
2022-09-14T06:57:00.695Z,100379.47
2022-09-14T06:59:29.686Z,100387.94
2022-09-14T07:02:00.256Z,100387.56
2022-09-14T07:04:30.090Z,100388.09
2022-09-14T07:06:59.129Z,100388.63
2022-09-14T07:09:28.420Z,100381.53
2022-09-14T07:11:57.382Z,100392.09
2022-09-14T07:14:30.377Z,100388.47
2022-09-14T07:17:02.551Z,100388.81
2022-09-14T07:19:31.805Z,100390.50
2022-09-14T07:22:01.539Z,100391.63
2022-09-14T07:24:30.479Z,100396.03
2022-09-14T07:26:59.500Z,100389.59
2022-09-14T07:29:28.497Z,100384.00
2022-09-14T07:31:57.465Z,100380.81
2022-09-14T07:34:28.016Z,100388.94
2022-09-14T07:36:57.044Z,100376.28
2022-09-14T07:39:26.124Z,100384.75
2022-09-14T07:41:55.143Z,100383.50
2022-09-14T07:44:24.483Z,100380.22
2022-09-14T07:46:53.437Z,100391.59
2022-09-14T07:49:22.585Z,100391.19
2022-09-14T07:51:54.911Z,100395.22
2022-09-14T07:54:23.813Z,100395.63
2022-09-14T07:56:52.767Z,100393.19
2022-09-14T07:59:35.655Z,100392.63
2022-09-14T08:02:08.030Z,100393.94
2022-09-14T08:04:39.192Z,100393.09
2022-09-14T08:07:10.166Z,100395.03
2022-09-14T08:09:39.767Z,100381.94
2022-09-14T08:12:08.679Z,100380.50
2022-09-14T08:14:37.964Z,100375.00
2022-09-14T08:17:06.959Z,100379.09
2022-09-14T08:19:36.007Z,100379.41
2022-09-14T08:22:05.278Z,100376.50
2022-09-14T08:24:35.563Z,100382.72
2022-09-14T08:27:04.604Z,100379.97
2022-09-14T08:29:33.538Z,100372.84
2022-09-14T08:32:02.638Z,100364.34
2022-09-14T08:34:31.686Z,100372.28
2022-09-14T08:37:00.794Z,100366.81
2022-09-14T08:39:30.051Z,100372.28
2022-09-14T08:42:01.876Z,100367.78
2022-09-14T08:44:36.603Z,100360.88
2022-09-14T08:47:12.758Z,100359.88
2022-09-14T08:49:47.476Z,100360.88
2022-09-14T08:52:26.973Z,100350.56
2022-09-14T08:54:57.766Z,100353.94
2022-09-14T08:57:40.409Z,100361.50
2022-09-14T09:00:13.942Z,100363.63
2022-09-14T09:03:05.076Z,100361.28
2022-09-14T09:05:43.696Z,100349.75
2022-09-14T09:08:20.649Z,100351.75
2022-09-14T09:10:52.733Z,100350.59
2022-09-14T09:13:27.567Z,100343.34
2022-09-14T09:16:00.850Z,100350.53
2022-09-14T09:18:39.248Z,100338.63
2022-09-14T09:21:14.738Z,100342.63
2022-09-14T09:23:43.972Z,100341.38
2022-09-14T09:26:20.344Z,100342.81
2022-09-14T09:28:53.750Z,100341.22
2022-09-14T09:31:33.329Z,100333.56
2022-09-14T09:34:36.964Z,100327.59
2022-09-14T09:37:16.366Z,100328.63
2022-09-14T09:39:46.010Z,100326.53
2022-09-14T09:42:20.979Z,100334.16
2022-09-14T09:45:02.375Z,100333.34
2022-09-14T09:47:35.484Z,100342.75
2022-09-14T09:50:07.348Z,100327.91
2022-09-14T09:52:37.060Z,100322.22
2022-09-14T09:55:08.427Z,100322.13
2022-09-14T09:57:38.370Z,100311.97
2022-09-14T10:00:21.620Z,100311.81
2022-09-14T10:02:51.463Z,100309.78
2022-09-14T10:05:23.602Z,100310.25
2022-09-14T10:07:59.131Z,100314.28
2022-09-14T10:10:43.511Z,100303.38
2022-09-14T10:13:33.496Z,100307.94
2022-09-14T10:16:16.165Z,100307.97
2022-09-14T10:18:49.158Z,100309.97
2022-09-14T10:21:20.487Z,100312.00
2022-09-14T10:24:05.940Z,100307.88
2022-09-14T10:26:38.696Z,100312.63
2022-09-14T10:29:27.867Z,100317.91
2022-09-14T10:32:05.283Z,100317.75
2022-09-14T10:34:34.272Z,100321.34
2022-09-14T10:37:18.768Z,100305.09
2022-09-14T10:39:53.284Z,100316.72
2022-09-14T10:42:31.260Z,100316.97
2022-09-14T10:45:14.553Z,100319.63
2022-09-14T10:48:02.421Z,100316.13
2022-09-14T10:50:41.970Z,100314.47
2022-09-14T10:53:21.577Z,100311.59
2022-09-14T10:56:01.763Z,100311.72
2022-09-14T10:58:43.672Z,100315.38
2022-09-14T11:01:27.265Z,100304.03
2022-09-14T11:04:15.514Z,100300.06
2022-09-14T11:06:54.941Z,100300.94
2022-09-14T11:09:28.135Z,100287.94
2022-09-14T11:12:08.065Z,100301.91
2022-09-14T11:14:51.640Z,100293.28
2022-09-14T11:17:50.573Z,100291.56
2022-09-14T11:20:31.368Z,100292.56
2022-09-14T11:23:14.761Z,100289.63
2022-09-14T11:25:49.245Z,100294.88
2022-09-14T11:28:21.684Z,100289.34
2022-09-14T11:31:00.942Z,100285.53
2022-09-14T11:33:38.122Z,100291.72
2022-09-14T11:36:17.320Z,100286.25
2022-09-14T11:38:51.506Z,100274.00
2022-09-14T11:41:25.774Z,100279.25
2022-09-14T11:43:59.356Z,100279.78
2022-09-14T11:46:34.531Z,100281.31
2022-09-14T11:49:13.792Z,100294.19
2022-09-14T11:51:50.258Z,100294.59
2022-09-14T11:54:21.513Z,100287.00
2022-09-14T11:56:53.668Z,100279.94
2022-09-14T11:59:38.787Z,100273.66
2022-09-14T12:02:50.743Z,100277.19
2022-09-14T12:05:31.884Z,100285.50
2022-09-14T12:08:27.570Z,100280.28
2022-09-14T12:11:25.436Z,100287.59
2022-09-14T12:14:16.132Z,100282.56
2022-09-14T12:17:17.658Z,100276.03
2022-09-14T12:19:57.567Z,100282.63
2022-09-14T12:22:33.306Z,100283.94
2022-09-14T12:25:15.514Z,100284.25
2022-09-14T12:27:45.706Z,100286.19
2022-09-14T12:30:53.292Z,100290.13
2022-09-14T12:33:58.404Z,100290.03
2022-09-14T12:37:25.777Z,100294.06
2022-09-14T12:40:28.680Z,100285.06
2022-09-14T12:43:25.597Z,100286.72
2022-09-14T12:46:03.264Z,100293.13
2022-09-14T12:49:02.655Z,100285.03
2022-09-14T12:51:47.441Z,100294.44
2022-09-14T12:54:26.123Z,100296.41
2022-09-14T12:57:10.160Z,100292.47
2022-09-14T12:59:47.888Z,100295.03
2022-09-14T13:02:56.534Z,100285.28
2022-09-14T13:05:27.843Z,100281.59
2022-09-14T13:07:57.398Z,100284.72
2022-09-14T13:10:31.563Z,100278.59
2022-09-14T13:13:03.143Z,100274.97
2022-09-14T13:15:36.800Z,100273.94
2022-09-14T13:18:24.038Z,100260.88
2022-09-14T13:20:55.458Z,100258.00
2022-09-14T13:23:28.984Z,100253.97
2022-09-14T13:25:58.883Z,100253.69
2022-09-14T13:28:31.954Z,100251.69
2022-09-14T13:31:03.572Z,100247.53
2022-09-14T13:33:32.584Z,100249.75
2022-09-14T13:36:03.880Z,100239.00
2022-09-14T13:38:35.486Z,100245.69
2022-09-14T13:41:10.205Z,100249.06
2022-09-14T13:43:39.602Z,100255.47
2022-09-14T13:46:11.767Z,100239.09
2022-09-14T13:48:43.185Z,100244.06
2022-09-14T13:51:14.640Z,100248.50
2022-09-14T13:53:48.839Z,100241.28
2022-09-14T13:56:20.310Z,100229.38
2022-09-14T13:58:51.612Z,100230.84
2022-09-14T14:01:30.396Z,100234.53
2022-09-14T14:03:59.594Z,100235.59
2022-09-14T14:06:31.157Z,100225.75
2022-09-14T14:09:03.010Z,100222.78
2022-09-14T14:11:36.778Z,100212.16
2022-09-14T14:14:22.335Z,100213.91
2022-09-14T14:17:33.094Z,100207.44
2022-09-14T14:20:30.436Z,100207.44
2022-09-14T14:23:02.400Z,100207.88
2022-09-14T14:25:34.433Z,100203.03
2022-09-14T14:28:05.154Z,100209.59
2022-09-14T14:30:40.268Z,100195.44
2022-09-14T14:33:15.000Z,100192.97
2022-09-14T14:35:44.018Z,100187.22
2022-09-14T14:38:12.997Z,100171.19
2022-09-14T14:40:43.749Z,100185.25
2022-09-14T14:43:17.783Z,100186.22
2022-09-14T14:45:47.235Z,100174.09
2022-09-14T14:48:18.410Z,100170.28
2022-09-14T14:50:48.412Z,100164.03
2022-09-14T14:53:17.374Z,100166.38
2022-09-14T14:55:46.384Z,100175.97
2022-09-14T14:58:18.139Z,100165.56
2022-09-14T15:00:47.985Z,100159.16
2022-09-14T15:03:18.913Z,100155.75
2022-09-14T15:05:51.432Z,100155.72
2022-09-14T15:08:20.830Z,100160.41
2022-09-14T15:10:56.073Z,100152.94
2022-09-14T15:13:25.010Z,100152.75
2022-09-14T15:15:54.203Z,100142.69
2022-09-14T15:18:24.552Z,100145.09
2022-09-14T15:20:58.145Z,100147.28
2022-09-14T15:23:31.475Z,100152.75
2022-09-14T15:26:01.340Z,100156.47
2022-09-14T15:28:32.224Z,100147.38
2022-09-14T15:31:03.103Z,100146.03
2022-09-14T15:33:36.418Z,100144.69
2022-09-14T15:36:06.835Z,100143.84
2022-09-14T15:38:37.306Z,100139.28
2022-09-14T15:41:07.832Z,100148.84
2022-09-14T15:43:37.882Z,100145.75
2022-09-14T15:46:07.786Z,100147.66
2022-09-14T15:48:41.786Z,100147.97
2022-09-14T15:51:13.024Z,100141.00
2022-09-14T15:53:42.647Z,100137.00
2022-09-14T15:56:13.097Z,100138.03
2022-09-14T15:58:48.197Z,100140.19
2022-09-14T16:01:21.314Z,100146.66
2022-09-14T16:03:58.107Z,100150.38
2022-09-14T16:06:28.491Z,100152.41
2022-09-14T16:09:02.340Z,100154.84
2022-09-14T16:11:32.764Z,100155.41
2022-09-14T16:14:04.287Z,100149.94
2022-09-14T16:16:35.354Z,100154.41
2022-09-14T16:19:09.117Z,100148.66
2022-09-14T16:21:40.802Z,100145.19
2022-09-14T16:24:14.278Z,100141.72
2022-09-14T16:26:44.709Z,100134.16
2022-09-14T16:29:19.755Z,100145.31
2022-09-14T16:31:49.822Z,100147.84
2022-09-14T16:34:25.710Z,100153.16
2022-09-14T16:36:59.986Z,100149.50
2022-09-14T16:39:31.922Z,100144.59
2022-09-14T16:42:01.400Z,100144.31
2022-09-14T16:44:30.738Z,100148.63
2022-09-14T16:47:00.754Z,100143.16
2022-09-14T16:49:31.468Z,100141.69
2022-09-14T16:52:01.591Z,100141.59
2022-09-14T16:54:31.886Z,100141.44
2022-09-14T16:57:04.497Z,100141.97
2022-09-14T16:59:37.246Z,100149.19
2022-09-14T17:02:07.734Z,100144.06
2022-09-14T17:04:39.551Z,100140.94
2022-09-14T17:07:10.250Z,100146.88
2022-09-14T17:09:41.194Z,100148.88
2022-09-14T17:12:10.716Z,100151.06
2022-09-14T17:14:39.686Z,100141.31
2022-09-14T17:17:08.912Z,100150.69
2022-09-14T17:19:43.544Z,100154.41
2022-09-14T17:22:13.243Z,100155.16
2022-09-14T17:24:42.764Z,100160.59
2022-09-14T17:27:11.897Z,100164.72
2022-09-14T17:29:40.904Z,100159.78
2022-09-14T17:32:14.645Z,100169.28
2022-09-14T17:34:46.748Z,100164.25
2022-09-14T17:37:15.920Z,100164.59
2022-09-14T17:39:44.940Z,100152.22
2022-09-14T17:42:14.653Z,100163.44
2022-09-14T17:44:44.747Z,100159.16
2022-09-14T17:47:13.869Z,100167.44
2022-09-14T17:49:44.223Z,100152.94
2022-09-14T17:52:13.240Z,100159.69
2022-09-14T17:54:42.291Z,100157.25
2022-09-14T17:57:14.144Z,100154.50
2022-09-14T17:59:43.453Z,100163.47
2022-09-14T18:02:12.471Z,100157.88
2022-09-14T18:04:45.372Z,100156.91
2022-09-14T18:07:18.273Z,100160.28
2022-09-14T18:09:47.395Z,100156.16
2022-09-14T18:12:17.742Z,100160.28
2022-09-14T18:14:47.963Z,100162.91
2022-09-14T18:17:17.055Z,100151.81
2022-09-14T18:19:46.133Z,100150.88
2022-09-14T18:22:15.672Z,100148.56
2022-09-14T18:24:46.360Z,100148.81
2022-09-14T18:27:15.425Z,100148.97
2022-09-14T18:29:44.410Z,100151.09
2022-09-14T18:32:13.475Z,100151.94
2022-09-14T18:34:42.390Z,100155.16
2022-09-14T18:37:11.406Z,100159.13
2022-09-14T18:39:40.829Z,100154.13
2022-09-14T18:42:11.130Z,100154.28
2022-09-14T18:44:40.360Z,100156.47
2022-09-14T18:47:09.293Z,100162.59
2022-09-14T18:49:38.255Z,100158.50
2022-09-14T18:52:07.601Z,100169.59
2022-09-14T18:54:36.500Z,100164.00
2022-09-14T18:57:05.604Z,100167.50
2022-09-14T18:59:36.249Z,100169.50
2022-09-14T19:02:05.358Z,100174.78
2022-09-14T19:04:34.382Z,100168.06
2022-09-14T19:07:03.381Z,100161.81
2022-09-14T19:09:32.812Z,100161.81
2022-09-14T19:12:02.118Z,100166.63
2022-09-14T19:14:31.356Z,100167.47
2022-09-14T19:17:01.612Z,100169.28
2022-09-14T19:19:30.951Z,100161.72
2022-09-14T19:22:00.184Z,100156.78
2022-09-14T19:24:30.735Z,100155.28
2022-09-14T19:27:00.362Z,100150.50
2022-09-14T19:29:29.583Z,100157.28
2022-09-14T19:31:58.540Z,100152.16
2022-09-14T19:34:29.540Z,100156.91
2022-09-14T19:36:58.484Z,100152.63
2022-09-14T19:39:27.761Z,100156.03
2022-09-14T19:41:56.720Z,100159.50
2022-09-14T19:44:25.621Z,100149.44
2022-09-14T19:46:54.560Z,100155.03
2022-09-14T19:49:26.547Z,100154.19
2022-09-14T19:51:57.268Z,100150.09
2022-09-14T19:54:26.465Z,100157.81
2022-09-14T19:56:55.463Z,100153.34
2022-09-14T19:59:24.569Z,100146.06
2022-09-14T20:01:53.721Z,100145.44
2022-09-14T20:04:23.668Z,100134.88
2022-09-14T20:06:52.658Z,100134.66
2022-09-14T20:09:25.042Z,100130.25
2022-09-14T20:11:54.881Z,100136.44
2022-09-14T20:14:26.102Z,100137.44
2022-09-14T20:16:58.364Z,100140.06
2022-09-14T20:19:29.279Z,100142.66
2022-09-14T20:21:58.323Z,100143.16
2022-09-14T20:24:31.516Z,100145.13
2022-09-14T20:27:02.546Z,100142.44
2022-09-14T20:29:34.173Z,100137.88
2022-09-14T20:32:04.204Z,100143.44
2022-09-14T20:34:34.308Z,100147.53
2022-09-14T20:37:03.340Z,100143.44
2022-09-14T20:39:36.014Z,100147.66
2022-09-14T20:42:05.625Z,100145.53
2022-09-14T20:44:34.551Z,100147.81
2022-09-14T20:47:03.558Z,100150.44
2022-09-14T20:49:32.458Z,100156.47
2022-09-14T20:52:02.962Z,100146.59
2022-09-14T20:54:33.566Z,100145.25
2022-09-14T20:57:04.594Z,100152.81
2022-09-14T20:59:33.962Z,100150.44
2022-09-14T21:02:05.457Z,100146.59
2022-09-14T21:04:36.581Z,100146.28
2022-09-14T21:07:06.097Z,100154.44
2022-09-14T21:09:36.581Z,100157.28
2022-09-14T21:12:05.815Z,100150.19
2022-09-14T21:14:34.774Z,100150.41
2022-09-14T21:17:03.841Z,100137.88
2022-09-14T21:19:32.857Z,100142.53
2022-09-14T21:22:01.823Z,100132.47
2022-09-14T21:24:31.023Z,100135.41
2022-09-14T21:27:01.503Z,100138.84
2022-09-14T21:29:31.126Z,100141.56
2022-09-14T21:32:00.274Z,100141.94
2022-09-14T21:34:29.464Z,100133.91
2022-09-14T21:36:58.702Z,100130.91
2022-09-14T21:39:28.433Z,100136.31
2022-09-14T21:41:59.898Z,100130.41
2022-09-14T21:44:30.773Z,100125.25
2022-09-14T21:47:00.086Z,100121.81
2022-09-14T21:49:29.329Z,100113.50
2022-09-14T21:51:58.439Z,100116.72
2022-09-14T21:54:28.056Z,100109.72
2022-09-14T21:56:57.100Z,100118.44
2022-09-14T21:59:27.482Z,100118.88
2022-09-14T22:01:56.472Z,100118.00
2022-09-14T22:04:26.804Z,100115.53
2022-09-14T22:06:57.241Z,100115.75
2022-09-14T22:09:28.713Z,100105.28
2022-09-14T22:11:58.513Z,100108.28
2022-09-14T22:14:30.239Z,100101.03
2022-09-14T22:16:59.570Z,100105.75
2022-09-14T22:19:30.230Z,100110.28
2022-09-14T22:22:00.242Z,100106.66
2022-09-14T22:24:37.032Z,100105.00
2022-09-14T22:27:08.251Z,100103.16
2022-09-14T22:29:40.500Z,100099.38
2022-09-14T22:32:10.752Z,100100.25
2022-09-14T22:34:41.414Z,100089.88
2022-09-14T22:37:10.508Z,100095.78
2022-09-14T22:39:39.495Z,100100.66
2022-09-14T22:42:08.524Z,100091.53
2022-09-14T22:44:38.819Z,100099.06
2022-09-14T22:47:08.248Z,100097.13
2022-09-14T22:49:37.256Z,100091.50
2022-09-14T22:52:06.375Z,100085.97
2022-09-14T22:54:35.415Z,100077.94
2022-09-14T22:57:04.539Z,100073.34
2022-09-14T22:59:33.432Z,100073.69
2022-09-14T23:02:03.916Z,100075.69
2022-09-14T23:04:33.529Z,100068.84
2022-09-14T23:07:04.136Z,100063.44
2022-09-14T23:09:33.371Z,100062.00
2022-09-14T23:12:02.622Z,100064.66
2022-09-14T23:14:32.198Z,100072.56
2022-09-14T23:17:05.432Z,100065.50
2022-09-14T23:19:34.499Z,100057.97
2022-09-14T23:22:04.700Z,100057.78
2022-09-14T23:24:33.725Z,100055.16
2022-09-14T23:27:02.673Z,100055.88
2022-09-14T23:29:31.573Z,100064.25
2022-09-14T23:32:00.715Z,100060.31
2022-09-14T23:34:31.172Z,100059.47
2022-09-14T23:37:01.554Z,100063.28
2022-09-14T23:39:30.484Z,100056.84
2022-09-14T23:41:59.644Z,100071.00
2022-09-14T23:44:28.595Z,100071.81
2022-09-14T23:46:57.538Z,100074.09
2022-09-14T23:49:26.668Z,100065.91
2022-09-14T23:51:56.935Z,100066.38
2022-09-14T23:54:26.123Z,100074.09
2022-09-14T23:56:55.524Z,100065.91
2022-09-14T23:59:24.697Z,100063.72
